sensor_id;sensor_type;location;lat;lon;timestamp;temperature;humidity
44729;DHT22;30457;53.590;9.922;2023-07-22T00:01:14;19.20;51.90
44729;DHT22;30457;53.590;9.922;2023-07-22T00:05:40;19.20;52.20
44729;DHT22;30457;53.590;9.922;2023-07-22T00:10:07;19.20;52.00
44729;DHT22;30457;53.590;9.922;2023-07-22T00:14:32;19.10;52.20
44729;DHT22;30457;53.590;9.922;2023-07-22T00:18:58;19.10;52.20
44729;DHT22;30457;53.590;9.922;2023-07-22T00:23:23;19.00;52.30
44729;DHT22;30457;53.590;9.922;2023-07-22T00:27:49;19.00;52.20
44729;DHT22;30457;53.590;9.922;2023-07-22T00:32:15;19.00;52.40
44729;DHT22;30457;53.590;9.922;2023-07-22T00:36:40;18.90;52.50
44729;DHT22;30457;53.590;9.922;2023-07-22T00:41:06;18.80;52.60
44729;DHT22;30457;53.590;9.922;2023-07-22T00:45:32;18.80;53.00
44729;DHT22;30457;53.590;9.922;2023-07-22T00:50:00;18.80;53.30
44729;DHT22;30457;53.590;9.922;2023-07-22T00:54:26;18.70;53.30
44729;DHT22;30457;53.590;9.922;2023-07-22T00:58:52;18.70;53.30
44729;DHT22;30457;53.590;9.922;2023-07-22T01:03:18;18.70;53.20
44729;DHT22;30457;53.590;9.922;2023-07-22T01:07:44;18.70;53.10
44729;DHT22;30457;53.590;9.922;2023-07-22T01:12:11;18.60;53.30
44729;DHT22;30457;53.590;9.922;2023-07-22T01:16:37;18.60;53.30
44729;DHT22;30457;53.590;9.922;2023-07-22T01:21:02;18.60;53.50
44729;DHT22;30457;53.590;9.922;2023-07-22T01:25:28;18.60;53.30
44729;DHT22;30457;53.590;9.922;2023-07-22T01:29:54;18.50;53.30
44729;DHT22;30457;53.590;9.922;2023-07-22T01:34:20;18.50;53.30
44729;DHT22;30457;53.590;9.922;2023-07-22T01:38:46;18.50;53.30
44729;DHT22;30457;53.590;9.922;2023-07-22T01:43:11;18.40;53.40
44729;DHT22;30457;53.590;9.922;2023-07-22T01:47:38;18.40;53.50
44729;DHT22;30457;53.590;9.922;2023-07-22T01:52:04;18.30;53.60
44729;DHT22;30457;53.590;9.922;2023-07-22T01:56:30;18.40;53.70
44729;DHT22;30457;53.590;9.922;2023-07-22T02:00:56;18.30;53.40
44729;DHT22;30457;53.590;9.922;2023-07-22T02:05:21;18.30;53.50
44729;DHT22;30457;53.590;9.922;2023-07-22T02:09:47;18.20;53.70
44729;DHT22;30457;53.590;9.922;2023-07-22T02:14:13;18.20;53.60
44729;DHT22;30457;53.590;9.922;2023-07-22T02:18:38;18.20;53.80
44729;DHT22;30457;53.590;9.922;2023-07-22T02:23:04;18.10;53.80
44729;DHT22;30457;53.590;9.922;2023-07-22T02:27:29;18.10;53.90
44729;DHT22;30457;53.590;9.922;2023-07-22T02:31:55;18.10;53.70
44729;DHT22;30457;53.590;9.922;2023-07-22T02:36:21;18.00;53.90
44729;DHT22;30457;53.590;9.922;2023-07-22T02:40:46;18.00;54.00
44729;DHT22;30457;53.590;9.922;2023-07-22T02:45:12;18.00;54.00
44729;DHT22;30457;53.590;9.922;2023-07-22T02:49:37;17.90;54.10
44729;DHT22;30457;53.590;9.922;2023-07-22T02:54:03;17.90;54.30
44729;DHT22;30457;53.590;9.922;2023-07-22T02:58:29;17.90;54.40
44729;DHT22;30457;53.590;9.922;2023-07-22T03:02:56;17.80;54.20
44729;DHT22;30457;53.590;9.922;2023-07-22T03:07:28;17.80;54.50
44729;DHT22;30457;53.590;9.922;2023-07-22T03:11:54;17.80;54.60
44729;DHT22;30457;53.590;9.922;2023-07-22T03:16:19;17.80;54.60
44729;DHT22;30457;53.590;9.922;2023-07-22T03:20:45;17.80;54.60
44729;DHT22;30457;53.590;9.922;2023-07-22T03:25:11;17.80;54.60
44729;DHT22;30457;53.590;9.922;2023-07-22T03:29:38;17.70;55.20
44729;DHT22;30457;53.590;9.922;2023-07-22T03:34:03;17.70;54.80
44729;DHT22;30457;53.590;9.922;2023-07-22T03:38:30;17.70;54.90
44729;DHT22;30457;53.590;9.922;2023-07-22T03:42:57;17.70;55.60
44729;DHT22;30457;53.590;9.922;2023-07-22T03:47:25;17.70;55.00
44729;DHT22;30457;53.590;9.922;2023-07-22T03:51:51;17.70;54.90
44729;DHT22;30457;53.590;9.922;2023-07-22T03:56:16;17.70;55.00
44729;DHT22;30457;53.590;9.922;2023-07-22T04:00:42;17.70;55.10
44729;DHT22;30457;53.590;9.922;2023-07-22T04:05:08;17.70;55.10
44729;DHT22;30457;53.590;9.922;2023-07-22T04:09:34;17.70;55.20
44729;DHT22;30457;53.590;9.922;2023-07-22T04:14:00;17.70;55.20
44729;DHT22;30457;53.590;9.922;2023-07-22T04:18:26;17.70;55.20
44729;DHT22;30457;53.590;9.922;2023-07-22T04:22:51;17.70;55.20
44729;DHT22;30457;53.590;9.922;2023-07-22T04:27:17;17.70;55.20
44729;DHT22;30457;53.590;9.922;2023-07-22T04:31:42;17.70;55.20
44729;DHT22;30457;53.590;9.922;2023-07-22T04:36:08;17.70;55.30
44729;DHT22;30457;53.590;9.922;2023-07-22T04:40:34;17.70;55.40
44729;DHT22;30457;53.590;9.922;2023-07-22T04:44:59;17.70;55.50
44729;DHT22;30457;53.590;9.922;2023-07-22T04:49:25;17.70;55.50
44729;DHT22;30457;53.590;9.922;2023-07-22T04:53:50;17.80;55.50
44729;DHT22;30457;53.590;9.922;2023-07-22T04:58:16;17.80;55.60
44729;DHT22;30457;53.590;9.922;2023-07-22T05:02:45;17.80;55.60
44729;DHT22;30457;53.590;9.922;2023-07-22T05:07:11;17.80;56.10
44729;DHT22;30457;53.590;9.922;2023-07-22T05:11:36;17.90;56.00
44729;DHT22;30457;53.590;9.922;2023-07-22T05:16:02;17.90;56.00
44729;DHT22;30457;53.590;9.922;2023-07-22T05:20:28;18.00;56.00
44729;DHT22;30457;53.590;9.922;2023-07-22T05:24:53;18.00;56.00
44729;DHT22;30457;53.590;9.922;2023-07-22T05:29:19;18.10;56.00
44729;DHT22;30457;53.590;9.922;2023-07-22T05:33:44;18.20;56.10
44729;DHT22;30457;53.590;9.922;2023-07-22T05:38:10;18.20;55.80
44729;DHT22;30457;53.590;9.922;2023-07-22T05:42:36;18.30;56.10
44729;DHT22;30457;53.590;9.922;2023-07-22T05:47:01;18.40;56.10
44729;DHT22;30457;53.590;9.922;2023-07-22T05:51:27;18.60;56.10
44729;DHT22;30457;53.590;9.922;2023-07-22T05:55:52;18.60;56.10
44729;DHT22;30457;53.590;9.922;2023-07-22T06:00:18;18.70;56.20
44729;DHT22;30457;53.590;9.922;2023-07-22T06:04:44;18.90;56.20
44729;DHT22;30457;53.590;9.922;2023-07-22T06:09:09;19.00;55.80
44729;DHT22;30457;53.590;9.922;2023-07-22T06:13:35;19.10;55.60
44729;DHT22;30457;53.590;9.922;2023-07-22T06:18:01;19.30;55.60
44729;DHT22;30457;53.590;9.922;2023-07-22T06:22:26;19.40;55.80
44729;DHT22;30457;53.590;9.922;2023-07-22T06:26:52;19.60;55.60
44729;DHT22;30457;53.590;9.922;2023-07-22T06:31:17;19.70;55.20
44729;DHT22;30457;53.590;9.922;2023-07-22T06:35:43;19.90;55.40
44729;DHT22;30457;53.590;9.922;2023-07-22T06:40:09;20.10;54.90
44729;DHT22;30457;53.590;9.922;2023-07-22T06:44:35;20.30;54.70
44729;DHT22;30457;53.590;9.922;2023-07-22T06:49:00;20.40;54.30
44729;DHT22;30457;53.590;9.922;2023-07-22T06:53:26;20.60;54.30
44729;DHT22;30457;53.590;9.922;2023-07-22T06:57:51;20.80;54.40
44729;DHT22;30457;53.590;9.922;2023-07-22T07:02:17;21.00;54.10
44729;DHT22;30457;53.590;9.922;2023-07-22T07:06:42;21.10;53.60
44729;DHT22;30457;53.590;9.922;2023-07-22T07:11:08;21.30;53.10
44729;DHT22;30457;53.590;9.922;2023-07-22T07:15:33;21.50;52.80
44729;DHT22;30457;53.590;9.922;2023-07-22T07:19:59;21.60;52.50
44729;DHT22;30457;53.590;9.922;2023-07-22T07:24:24;21.70;52.20
44729;DHT22;30457;53.590;9.922;2023-07-22T07:28:53;21.80;52.20
44729;DHT22;30457;53.590;9.922;2023-07-22T07:33:18;21.90;51.50
44729;DHT22;30457;53.590;9.922;2023-07-22T07:37:44;22.10;51.20
44729;DHT22;30457;53.590;9.922;2023-07-22T07:42:09;22.10;51.10
44729;DHT22;30457;53.590;9.922;2023-07-22T07:46:35;22.30;50.60
44729;DHT22;30457;53.590;9.922;2023-07-22T07:51:00;22.30;50.00
44729;DHT22;30457;53.590;9.922;2023-07-22T07:55:27;22.20;49.80
44729;DHT22;30457;53.590;9.922;2023-07-22T07:59:52;22.30;49.80
44729;DHT22;30457;53.590;9.922;2023-07-22T08:04:18;22.20;49.90
44729;DHT22;30457;53.590;9.922;2023-07-22T08:08:43;22.30;49.60
44729;DHT22;30457;53.590;9.922;2023-07-22T08:13:09;22.30;49.40
44729;DHT22;30457;53.590;9.922;2023-07-22T08:17:34;22.40;49.20
44729;DHT22;30457;53.590;9.922;2023-07-22T08:22:00;22.50;49.10
44729;DHT22;30457;53.590;9.922;2023-07-22T08:26:25;22.60;49.00
44729;DHT22;30457;53.590;9.922;2023-07-22T08:30:55;22.70;49.00
44729;DHT22;30457;53.590;9.922;2023-07-22T08:35:20;22.80;48.40
44729;DHT22;30457;53.590;9.922;2023-07-22T08:39:47;22.90;47.90
44729;DHT22;30457;53.590;9.922;2023-07-22T08:44:13;23.10;47.30
44729;DHT22;30457;53.590;9.922;2023-07-22T08:48:42;23.30;47.20
44729;DHT22;30457;53.590;9.922;2023-07-22T08:53:15;23.40;45.80
44729;DHT22;30457;53.590;9.922;2023-07-22T08:57:41;23.50;45.50
44729;DHT22;30457;53.590;9.922;2023-07-22T09:02:10;23.50;44.90
44729;DHT22;30457;53.590;9.922;2023-07-22T09:06:37;23.60;45.00
44729;DHT22;30457;53.590;9.922;2023-07-22T09:11:03;23.60;45.40
44729;DHT22;30457;53.590;9.922;2023-07-22T09:15:29;23.70;44.60
44729;DHT22;30457;53.590;9.922;2023-07-22T09:19:57;23.90;44.40
44729;DHT22;30457;53.590;9.922;2023-07-22T09:24:26;24.10;44.60
44729;DHT22;30457;53.590;9.922;2023-07-22T09:28:55;24.20;44.50
44729;DHT22;30457;53.590;9.922;2023-07-22T09:33:22;24.40;44.70
44729;DHT22;30457;53.590;9.922;2023-07-22T09:37:48;24.50;44.10
44729;DHT22;30457;53.590;9.922;2023-07-22T09:42:24;24.70;43.60
44729;DHT22;30457;53.590;9.922;2023-07-22T09:46:50;24.90;43.40
44729;DHT22;30457;53.590;9.922;2023-07-22T09:51:16;25.20;44.30
44729;DHT22;30457;53.590;9.922;2023-07-22T09:55:42;25.40;43.10
44729;DHT22;30457;53.590;9.922;2023-07-22T10:00:08;25.60;42.40
44729;DHT22;30457;53.590;9.922;2023-07-22T10:04:39;25.80;42.00
44729;DHT22;30457;53.590;9.922;2023-07-22T10:09:06;25.90;40.80
44729;DHT22;30457;53.590;9.922;2023-07-22T10:13:33;25.90;40.60
44729;DHT22;30457;53.590;9.922;2023-07-22T10:18:00;26.00;40.50
44729;DHT22;30457;53.590;9.922;2023-07-22T10:22:26;26.00;40.50
44729;DHT22;30457;53.590;9.922;2023-07-22T10:26:53;25.90;39.50
44729;DHT22;30457;53.590;9.922;2023-07-22T10:31:19;25.90;38.90
44729;DHT22;30457;53.590;9.922;2023-07-22T10:36:03;25.80;39.30
44729;DHT22;30457;53.590;9.922;2023-07-22T10:40:29;25.90;38.80
44729;DHT22;30457;53.590;9.922;2023-07-22T10:45:00;26.00;39.00
44729;DHT22;30457;53.590;9.922;2023-07-22T10:49:48;26.00;39.00
44729;DHT22;30457;53.590;9.922;2023-07-22T10:54:14;26.20;39.50
44729;DHT22;30457;53.590;9.922;2023-07-22T11:03:13;26.50;36.90
44729;DHT22;30457;53.590;9.922;2023-07-22T11:07:43;26.50;38.10
44729;DHT22;30457;53.590;9.922;2023-07-22T11:12:15;26.60;37.20
44729;DHT22;30457;53.590;9.922;2023-07-22T11:16:46;26.60;37.80
44729;DHT22;30457;53.590;9.922;2023-07-22T11:21:12;26.60;36.30
44729;DHT22;30457;53.590;9.922;2023-07-22T11:25:38;26.60;36.50
44729;DHT22;30457;53.590;9.922;2023-07-22T11:30:04;26.50;36.20
44729;DHT22;30457;53.590;9.922;2023-07-22T11:34:30;26.50;37.10
44729;DHT22;30457;53.590;9.922;2023-07-22T11:39:06;26.50;37.30
44729;DHT22;30457;53.590;9.922;2023-07-22T11:43:32;26.50;35.70
44729;DHT22;30457;53.590;9.922;2023-07-22T11:47:58;26.60;37.00
44729;DHT22;30457;53.590;9.922;2023-07-22T11:52:23;26.60;37.40
44729;DHT22;30457;53.590;9.922;2023-07-22T11:56:49;26.70;37.70
44729;DHT22;30457;53.590;9.922;2023-07-22T12:01:15;26.90;37.70
44729;DHT22;30457;53.590;9.922;2023-07-22T12:05:41;27.20;37.10
44729;DHT22;30457;53.590;9.922;2023-07-22T12:10:07;27.40;37.00
44729;DHT22;30457;53.590;9.922;2023-07-22T12:14:35;27.50;36.80
44729;DHT22;30457;53.590;9.922;2023-07-22T12:19:01;27.60;37.00
44729;DHT22;30457;53.590;9.922;2023-07-22T12:23:27;27.80;36.90
44729;DHT22;30457;53.590;9.922;2023-07-22T12:27:52;27.90;36.40
44729;DHT22;30457;53.590;9.922;2023-07-22T12:32:18;27.90;35.50
44729;DHT22;30457;53.590;9.922;2023-07-22T12:36:43;27.70;35.50
44729;DHT22;30457;53.590;9.922;2023-07-22T12:41:09;27.40;35.50
44729;DHT22;30457;53.590;9.922;2023-07-22T12:45:35;27.20;35.20
44729;DHT22;30457;53.590;9.922;2023-07-22T12:50:00;26.90;35.40
44729;DHT22;30457;53.590;9.922;2023-07-22T12:54:26;26.60;35.70
44729;DHT22;30457;53.590;9.922;2023-07-22T12:58:51;26.30;36.20
44729;DHT22;30457;53.590;9.922;2023-07-22T13:03:17;26.10;36.90
44729;DHT22;30457;53.590;9.922;2023-07-22T13:07:42;25.90;37.60
44729;DHT22;30457;53.590;9.922;2023-07-22T13:12:08;25.80;38.30
44729;DHT22;30457;53.590;9.922;2023-07-22T13:16:33;25.60;39.00
44729;DHT22;30457;53.590;9.922;2023-07-22T13:20:59;25.50;39.90
44729;DHT22;30457;53.590;9.922;2023-07-22T13:25:24;25.40;40.50
44729;DHT22;30457;53.590;9.922;2023-07-22T13:29:50;25.30;41.00
44729;DHT22;30457;53.590;9.922;2023-07-22T13:34:15;25.30;40.80
44729;DHT22;30457;53.590;9.922;2023-07-22T13:38:41;25.20;41.20
44729;DHT22;30457;53.590;9.922;2023-07-22T13:43:07;25.10;42.10
44729;DHT22;30457;53.590;9.922;2023-07-22T13:47:32;25.00;42.10
44729;DHT22;30457;53.590;9.922;2023-07-22T13:51:58;24.90;43.40
44729;DHT22;30457;53.590;9.922;2023-07-22T13:56:24;24.90;43.30
44729;DHT22;30457;53.590;9.922;2023-07-22T14:00:50;24.90;43.50
44729;DHT22;30457;53.590;9.922;2023-07-22T14:05:15;24.90;43.70
44729;DHT22;30457;53.590;9.922;2023-07-22T14:09:41;24.80;43.80
44729;DHT22;30457;53.590;9.922;2023-07-22T14:14:06;24.80;44.40
44729;DHT22;30457;53.590;9.922;2023-07-22T14:18:32;24.90;44.50
44729;DHT22;30457;53.590;9.922;2023-07-22T14:22:58;24.90;44.50
44729;DHT22;30457;53.590;9.922;2023-07-22T14:27:24;25.00;44.60
44729;DHT22;30457;53.590;9.922;2023-07-22T14:31:49;25.10;44.50
44729;DHT22;30457;53.590;9.922;2023-07-22T14:36:15;25.20;43.50
44729;DHT22;30457;53.590;9.922;2023-07-22T14:40:40;25.10;42.90
44729;DHT22;30457;53.590;9.922;2023-07-22T14:45:07;25.00;42.70
44729;DHT22;30457;53.590;9.922;2023-07-22T14:49:32;25.00;42.50
44729;DHT22;30457;53.590;9.922;2023-07-22T14:53:58;24.90;43.30
44729;DHT22;30457;53.590;9.922;2023-07-22T14:58:23;24.80;42.60
44729;DHT22;30457;53.590;9.922;2023-07-22T15:02:49;24.70;42.60
44729;DHT22;30457;53.590;9.922;2023-07-22T15:07:15;24.60;42.70
44729;DHT22;30457;53.590;9.922;2023-07-22T15:11:40;24.50;42.70
44729;DHT22;30457;53.590;9.922;2023-07-22T15:16:06;24.50;42.90
44729;DHT22;30457;53.590;9.922;2023-07-22T15:20:31;24.40;42.60
44729;DHT22;30457;53.590;9.922;2023-07-22T15:24:57;24.30;42.90
44729;DHT22;30457;53.590;9.922;2023-07-22T15:29:22;24.30;43.30
44729;DHT22;30457;53.590;9.922;2023-07-22T15:33:48;24.20;43.20
44729;DHT22;30457;53.590;9.922;2023-07-22T15:38:14;24.20;43.50
44729;DHT22;30457;53.590;9.922;2023-07-22T15:42:40;24.20;43.20
44729;DHT22;30457;53.590;9.922;2023-07-22T15:47:06;24.10;43.70
44729;DHT22;30457;53.590;9.922;2023-07-22T15:51:31;24.00;43.60
44729;DHT22;30457;53.590;9.922;2023-07-22T15:55:57;23.90;43.60
44729;DHT22;30457;53.590;9.922;2023-07-22T16:00:23;23.80;43.70
44729;DHT22;30457;53.590;9.922;2023-07-22T16:04:48;23.70;44.00
44729;DHT22;30457;53.590;9.922;2023-07-22T16:09:14;23.60;44.00
44729;DHT22;30457;53.590;9.922;2023-07-22T16:13:40;23.50;43.80
44729;DHT22;30457;53.590;9.922;2023-07-22T16:18:06;23.40;44.00
44729;DHT22;30457;53.590;9.922;2023-07-22T16:22:31;23.20;44.30
44729;DHT22;30457;53.590;9.922;2023-07-22T16:26:58;23.10;44.80
44729;DHT22;30457;53.590;9.922;2023-07-22T16:31:23;22.90;45.40
44729;DHT22;30457;53.590;9.922;2023-07-22T16:35:49;22.70;46.00
44729;DHT22;30457;53.590;9.922;2023-07-22T16:40:14;22.60;45.90
44729;DHT22;30457;53.590;9.922;2023-07-22T16:44:40;22.50;46.30
44729;DHT22;30457;53.590;9.922;2023-07-22T16:49:06;22.40;46.50
44729;DHT22;30457;53.590;9.922;2023-07-22T16:53:32;22.30;46.90
44729;DHT22;30457;53.590;9.922;2023-07-22T16:57:57;22.20;47.20
44729;DHT22;30457;53.590;9.922;2023-07-22T17:02:23;22.20;47.30
44729;DHT22;30457;53.590;9.922;2023-07-22T17:06:48;22.10;47.80
44729;DHT22;30457;53.590;9.922;2023-07-22T17:11:14;22.00;47.80
44729;DHT22;30457;53.590;9.922;2023-07-22T17:15:40;22.00;48.20
44729;DHT22;30457;53.590;9.922;2023-07-22T17:20:05;22.00;48.10
44729;DHT22;30457;53.590;9.922;2023-07-22T17:24:31;22.00;48.20
44729;DHT22;30457;53.590;9.922;2023-07-22T17:28:57;22.00;48.20
44729;DHT22;30457;53.590;9.922;2023-07-22T17:33:22;22.00;48.40
44729;DHT22;30457;53.590;9.922;2023-07-22T17:37:48;21.90;48.30
44729;DHT22;30457;53.590;9.922;2023-07-22T17:42:14;21.90;48.40
44729;DHT22;30457;53.590;9.922;2023-07-22T17:46:39;21.90;49.10
44729;DHT22;30457;53.590;9.922;2023-07-22T17:51:05;21.90;49.30
44729;DHT22;30457;53.590;9.922;2023-07-22T17:55:30;21.90;49.60
44729;DHT22;30457;53.590;9.922;2023-07-22T17:59:56;21.80;49.30
44729;DHT22;30457;53.590;9.922;2023-07-22T18:04:22;21.80;49.50
44729;DHT22;30457;53.590;9.922;2023-07-22T18:08:47;21.80;49.40
44729;DHT22;30457;53.590;9.922;2023-07-22T18:13:13;21.80;49.70
44729;DHT22;30457;53.590;9.922;2023-07-22T18:17:38;21.70;49.80
44729;DHT22;30457;53.590;9.922;2023-07-22T18:22:04;21.70;49.90
44729;DHT22;30457;53.590;9.922;2023-07-22T18:26:30;21.70;49.90
44729;DHT22;30457;53.590;9.922;2023-07-22T18:30:55;21.60;50.00
44729;DHT22;30457;53.590;9.922;2023-07-22T18:35:21;21.60;50.20
44729;DHT22;30457;53.590;9.922;2023-07-22T18:39:47;21.50;50.20
44729;DHT22;30457;53.590;9.922;2023-07-22T18:44:13;21.50;50.40
44729;DHT22;30457;53.590;9.922;2023-07-22T18:48:38;21.40;50.40
44729;DHT22;30457;53.590;9.922;2023-07-22T18:53:04;21.30;50.40
44729;DHT22;30457;53.590;9.922;2023-07-22T18:57:29;21.30;50.50
44729;DHT22;30457;53.590;9.922;2023-07-22T19:01:55;21.20;50.70
44729;DHT22;30457;53.590;9.922;2023-07-22T19:06:21;21.20;50.80
44729;DHT22;30457;53.590;9.922;2023-07-22T19:10:46;21.10;51.00
44729;DHT22;30457;53.590;9.922;2023-07-22T19:15:12;21.10;50.90
44729;DHT22;30457;53.590;9.922;2023-07-22T19:19:37;21.00;51.20
44729;DHT22;30457;53.590;9.922;2023-07-22T19:24:03;21.00;51.30
44729;DHT22;30457;53.590;9.922;2023-07-22T19:28:29;20.90;51.30
44729;DHT22;30457;53.590;9.922;2023-07-22T19:32:55;20.90;51.50
44729;DHT22;30457;53.590;9.922;2023-07-22T19:37:20;20.90;51.70
44729;DHT22;30457;53.590;9.922;2023-07-22T19:41:46;20.80;51.90
44729;DHT22;30457;53.590;9.922;2023-07-22T19:46:13;20.70;51.90
44729;DHT22;30457;53.590;9.922;2023-07-22T19:50:39;20.70;52.40
44729;DHT22;30457;53.590;9.922;2023-07-22T19:55:05;20.70;52.40
44729;DHT22;30457;53.590;9.922;2023-07-22T19:59:30;20.70;52.60
44729;DHT22;30457;53.590;9.922;2023-07-22T20:03:56;20.60;52.60
44729;DHT22;30457;53.590;9.922;2023-07-22T20:08:22;20.60;52.60
44729;DHT22;30457;53.590;9.922;2023-07-22T20:12:47;20.50;52.60
44729;DHT22;30457;53.590;9.922;2023-07-22T20:17:13;20.40;52.80
44729;DHT22;30457;53.590;9.922;2023-07-22T20:21:38;20.40;52.90
44729;DHT22;30457;53.590;9.922;2023-07-22T20:26:04;20.30;53.70
44729;DHT22;30457;53.590;9.922;2023-07-22T20:30:29;20.30;53.30
44729;DHT22;30457;53.590;9.922;2023-07-22T20:34:56;20.30;53.50
44729;DHT22;30457;53.590;9.922;2023-07-22T20:39:22;20.30;53.60
44729;DHT22;30457;53.590;9.922;2023-07-22T20:43:47;20.20;53.70
44729;DHT22;30457;53.590;9.922;2023-07-22T20:48:13;20.20;53.80
44729;DHT22;30457;53.590;9.922;2023-07-22T20:52:39;20.20;53.90
44729;DHT22;30457;53.590;9.922;2023-07-22T20:57:04;20.20;54.00
44729;DHT22;30457;53.590;9.922;2023-07-22T21:01:30;20.20;54.30
44729;DHT22;30457;53.590;9.922;2023-07-22T21:05:57;20.10;54.40
44729;DHT22;30457;53.590;9.922;2023-07-22T21:10:23;20.10;54.20
44729;DHT22;30457;53.590;9.922;2023-07-22T21:14:48;20.10;54.40
44729;DHT22;30457;53.590;9.922;2023-07-22T21:19:14;20.10;54.50
44729;DHT22;30457;53.590;9.922;2023-07-22T21:23:39;20.10;54.60
44729;DHT22;30457;53.590;9.922;2023-07-22T21:28:05;20.10;54.70
44729;DHT22;30457;53.590;9.922;2023-07-22T21:32:30;20.10;54.60
44729;DHT22;30457;53.590;9.922;2023-07-22T21:36:56;20.10;54.60
44729;DHT22;30457;53.590;9.922;2023-07-22T21:41:21;20.00;54.50
44729;DHT22;30457;53.590;9.922;2023-07-22T21:45:47;20.00;54.60
44729;DHT22;30457;53.590;9.922;2023-07-22T21:50:14;20.00;54.60
44729;DHT22;30457;53.590;9.922;2023-07-22T21:54:40;19.90;54.60
44729;DHT22;30457;53.590;9.922;2023-07-22T21:59:05;19.90;54.70
44729;DHT22;30457;53.590;9.922;2023-07-22T22:03:31;19.90;54.60
44729;DHT22;30457;53.590;9.922;2023-07-22T22:07:56;19.80;54.60
44729;DHT22;30457;53.590;9.922;2023-07-22T22:12:22;19.80;54.70
44729;DHT22;30457;53.590;9.922;2023-07-22T22:16:48;19.70;54.90
44729;DHT22;30457;53.590;9.922;2023-07-22T22:21:13;19.70;54.80
44729;DHT22;30457;53.590;9.922;2023-07-22T22:25:39;19.60;54.90
44729;DHT22;30457;53.590;9.922;2023-07-22T22:30:05;19.60;55.00
44729;DHT22;30457;53.590;9.922;2023-07-22T22:34:30;19.60;55.00
44729;DHT22;30457;53.590;9.922;2023-07-22T22:38:56;19.60;55.00
44729;DHT22;30457;53.590;9.922;2023-07-22T22:43:22;19.60;55.10
44729;DHT22;30457;53.590;9.922;2023-07-22T22:47:47;19.50;55.20
44729;DHT22;30457;53.590;9.922;2023-07-22T22:52:13;19.50;55.00
44729;DHT22;30457;53.590;9.922;2023-07-22T22:56:38;19.50;55.10
44729;DHT22;30457;53.590;9.922;2023-07-22T23:01:14;19.50;55.10
44729;DHT22;30457;53.590;9.922;2023-07-22T23:05:40;19.40;55.50
44729;DHT22;30457;53.590;9.922;2023-07-22T23:10:06;19.40;55.10
44729;DHT22;30457;53.590;9.922;2023-07-22T23:14:31;19.40;55.00
44729;DHT22;30457;53.590;9.922;2023-07-22T23:19:00;19.40;55.20
44729;DHT22;30457;53.590;9.922;2023-07-22T23:23:26;19.30;55.30
44729;DHT22;30457;53.590;9.922;2023-07-22T23:27:52;19.30;55.40
44729;DHT22;30457;53.590;9.922;2023-07-22T23:32:17;19.30;55.60
44729;DHT22;30457;53.590;9.922;2023-07-22T23:36:43;19.30;55.60
44729;DHT22;30457;53.590;9.922;2023-07-22T23:41:08;19.30;55.60
44729;DHT22;30457;53.590;9.922;2023-07-22T23:45:34;19.20;55.60
44729;DHT22;30457;53.590;9.922;2023-07-22T23:49:59;19.20;55.70
44729;DHT22;30457;53.590;9.922;2023-07-22T23:54:25;19.20;55.80
44729;DHT22;30457;53.590;9.922;2023-07-22T23:58:51;19.20;55.80
